This is the latest recevied weather packets stored in our database for station/object TG8AKV-17. If no packets are shown the sender has not sent any weather packets the latest 10 day(s).
| Time | Temp. | Humidity | Pressure | Rain* | Wind** | Luminosity | Snow |
|---|---|---|---|---|---|---|---|
| 1777584773 | 14.44° C | 93% | 1011 hPa | 0 mm | - | - | - |
| 1777584172 | 14.44° C | 95% | 1011 hPa | 0 mm | - | - | - |
| 1777583572 | 14.44° C | 94% | 1011 hPa | 0 mm | - | - | - |
| 1777582971 | 21.67° C | 65% | 1011 hPa | 0 mm | - | - | - |
| 1777582371 | 21.11° C | 67% | 1011 hPa | 0 mm | - | - | - |
| 1777581770 | 20° C | 74% | 1012 hPa | 0 mm | - | - | - |
| 1777581169 | 18.33° C | 91% | 1012 hPa | 0 mm | - | - | - |
| 1777580568 | 18.33° C | 91% | 1012 hPa | 0 mm | - | - | - |
| 1777579968 | 18.89° C | 89% | 1012 hPa | 0 mm | - | - | - |
| 1777579367 | 19.44° C | 87% | 1012 hPa | 0 mm | - | - | - |
| 1777578766 | 20° C | 84% | 1012 hPa | 0 mm | - | - | - |
| 1777578166 | 20.56° C | 80% | 1012 hPa | 0 mm | - | - | - |
| 1777577565 | 21.11° C | 73% | 1013 hPa | 0 mm | - | - | - |
| 1777576965 | 21.11° C | 73% | 1013 hPa | 0 mm | - | - | - |
| 1777576364 | 21.11° C | 73% | 1013 hPa | 0 mm | - | - | - |
| 1777575763 | 21.11° C | 73% | 1013 hPa | 0 mm | - | - | - |
| 1777574562 | 21.11° C | 73% | 1013 hPa | 0 mm | - | - | - |
| 1777573961 | 21.11° C | 68% | 1013 hPa | 0 mm | - | - | - |
| 1777573361 | 21.67° C | 62% | 1013 hPa | 0 mm | - | - | - |
| 1777572760 | 21.67° C | 54% | 1013 hPa | 0 mm | - | - | - |
| 1777572160 | 21.67° C | 45% | 1013 hPa | 0 mm | - | - | - |
| 1777571559 | 21.67° C | 46% | 1013 hPa | 0 mm | - | - | - |
| 1777570958 | 21.67° C | 46% | 1013 hPa | 0 mm | - | - | - |
| 1777570358 | 21.11° C | 50% | 1013 hPa | 0 mm | - | - | - |
| 1777569757 | 20.56° C | 56% | 1014 hPa | 0 mm | - | - | - |
* Rain latest hour (hover to see other rain measurements)
** Current wind speed in m/s (hover to see current wind gust speed)